Whitingham, VT (05361)

12:57 PM EDT on July 29, 2015 (GMT -0400)
South of the Village | | Change Station
CLOSE
Current Station
Personal Weather Station
Location: Jacksonville, VT
Elevation: 1545 ft
Nearby Weather Stations

Elev 1545 ft 42.76 °N, 72.81 °W | Updated 2 minutes ago

Clear
Clear
85.3 °F
Feels Like 86 °F
N
2.2
Wind Variable Wind from North
Gusts 6.0 mph

Today
High -- | Low -- °F
--% Chance of Precip.
Yesterday
High -- | Low -- °F
Precip. -- in
5:39 AM 8:15 PM
Waxing Gibbous, 96% visible
Pressure 29.97 in
Visibility 10.0 miles
Clouds Clear
Heat Index 86 °F
Dew Point 63 °F
Humidity 48%
Rainfall 0.00 in
Snow Depth Not available.
UV 11 out of 12
Pollen 6.30 out of 12
Air Quality Not available.
Flu Activity Not available.
METAR KAQW 291652Z AUTO 34003KT 10SM CLR 31/19 A2998 RMK AO2 SLP149 T03060194

More Conditions Fewer Conditions

Pressure 29.97 in
Visibility 10.0 miles
Clouds Clear
Heat Index 86 °F
Dew Point 63 °F
Humidity 48%
Rainfall 0.00 in
Snow Depth Not available.
UV 11 out of 12
Pollen 6.30 out of 12
Air Quality Not available.
Flu Activity Not available.
METAR KAQW 291652Z AUTO 34003KT 10SM CLR 31/19 A2998 RMK AO2 SLP149 T03060194

More Conditions Fewer Conditions

10-Day Weather Forecast

×

Almanac

Astronomy

Jul. 29, 2015 Rise Set
Actual Time
Civil Twilight
Nautical Twilight
Astronomical Twilight
Moon
Length of Visible Light
Length of Day
Tomorrow will be .
, % of the Moon is Illuminated

Today's Extremes

State Highs State Lows

Community

WunderPhotos

Upload Photos

1,842,130 photos uploaded!

WunderBlogs® & News

Nearby

Air Quality

  Air Quality AQ Index Pollutant
Not available.

Snow Depth

Station Depth Elevation

Earthquake Activity

City Distance Mag. Time & Date
Minimum magnitude displayed is 2.5.

Coastal Water Temperatures

Place Temperature

Stations

Nearby Weather Stations

Station Location Temp. Windchill Dew Point Humidity Wind Precip. Elev Updated Type